Time;durP1;ratioP1;P1;durP2;ratioP2;P2;SDS_P1;SDS_P2;PMS_P1;PMS_P2;Temp;Humidity;BMP_temperature;BMP_pressure;BME280_temperature;BME280_humidity;BME280_pressure;Samples;Min_cycle;Max_cycle;Signal;HPM_P1;HPM_P2
2021/03/02 00:02:17;;;;;;;39.83;30.87;;;3.90;99.90;;;;;;5033992;28;20484;-61
2021/03/02 00:04:44;;;;;;;35.50;28.23;;;4.00;99.90;;;;;;5033794;28;20471;-61
2021/03/02 00:07:13;;;;;;;37.17;28.80;;;3.90;99.90;;;;;;5034135;28;20491;-60
2021/03/02 00:09:40;;;;;;;33.23;25.63;;;3.90;99.90;;;;;;5034327;28;20495;-61
2021/03/02 00:12:09;;;;;;;33.50;28.80;;;3.90;99.90;;;;;;5033977;28;20477;-61
2021/03/02 00:14:36;;;;;;;34.80;28.33;;;3.80;99.90;;;;;;5033712;28;20453;-61
2021/03/02 00:17:08;;;;;;;31.93;27.17;;;3.80;99.90;;;;;;5033928;28;20480;-63
2021/03/02 00:19:40;;;;;;;33.83;28.33;;;3.80;99.90;;;;;;5033749;28;20445;-59
2021/03/02 00:22:14;;;;;;;33.57;27.00;;;3.80;99.90;;;;;;5033739;28;20488;-61
2021/03/02 00:24:41;;;;;;;34.23;27.37;;;3.70;99.90;;;;;;5033850;28;20420;-59
2021/03/02 00:27:12;;;;;;;33.17;25.87;;;3.70;99.90;;;;;;5033614;28;20995;-60
2021/03/02 00:29:41;;;;;;;32.70;26.43;;;3.70;99.90;;;;;;5033576;28;20480;-59
2021/03/02 00:32:08;;;;;;;32.00;27.53;;;3.60;99.90;;;;;;5033225;28;20967;-59
2021/03/02 00:34:34;;;;;;;32.90;25.60;;;3.60;99.90;;;;;;5033397;28;20452;-59
2021/03/02 00:37:01;;;;;;;30.70;26.23;;;3.60;99.90;;;;;;5033382;28;20504;-60
2021/03/02 00:39:27;;;;;;;32.90;28.00;;;3.50;99.90;;;;;;5033425;28;20437;-59
2021/03/02 00:41:53;;;;;;;35.53;26.37;;;3.50;99.90;;;;;;5033334;28;20476;-59
2021/03/02 00:44:20;;;;;;;34.10;25.90;;;3.50;99.90;;;;;;5033154;28;20448;-59
2021/03/02 00:46:46;;;;;;;29.60;24.20;;;3.50;99.90;;;;;;5033182;28;20523;-61
2021/03/02 00:49:12;;;;;;;24.90;22.20;;;3.50;99.90;;;;;;5033237;28;20424;-62
2021/03/02 00:51:39;;;;;;;27.33;23.80;;;3.50;99.90;;;;;;5033228;28;20423;-59
2021/03/02 00:54:05;;;;;;;25.27;22.57;;;3.50;99.90;;;;;;5033033;28;20452;-60
2021/03/02 00:56:31;;;;;;;28.20;23.27;;;3.50;99.90;;;;;;5032928;28;20975;-60
2021/03/02 00:58:58;;;;;;;28.33;25.13;;;3.40;99.90;;;;;;5033151;28;20427;-60
2021/03/02 01:01:25;;;;;;;23.47;20.87;;;3.40;99.90;;;;;;5032935;28;20999;-58
2021/03/02 01:03:51;;;;;;;27.30;22.13;;;3.40;99.90;;;;;;5032849;28;20523;-62
2021/03/02 01:06:17;;;;;;;23.27;20.73;;;3.40;99.90;;;;;;5032950;28;20476;-59
2021/03/02 01:08:44;;;;;;;24.83;21.47;;;3.40;99.90;;;;;;5032865;28;20465;-60
2021/03/02 01:11:10;;;;;;;24.23;20.83;;;3.40;99.90;;;;;;5032665;28;20441;-59
2021/03/02 01:13:36;;;;;;;24.03;19.47;;;3.40;99.90;;;;;;5032527;28;20449;-60
2021/03/02 01:16:06;;;;;;;22.90;19.50;;;3.50;99.90;;;;;;5032812;28;20663;-59
2021/03/02 01:18:33;;;;;;;21.73;18.40;;;3.50;99.90;;;;;;5032660;28;20436;-59
2021/03/02 01:20:59;;;;;;;19.67;17.73;;;3.40;99.90;;;;;;5032530;28;20481;-62
2021/03/02 01:23:25;;;;;;;22.43;20.13;;;3.40;99.90;;;;;;5032483;28;20441;-62
2021/03/02 01:25:51;;;;;;;21.57;19.20;;;3.40;99.90;;;;;;5032530;28;20448;-61
2021/03/02 01:28:18;;;;;;;22.30;19.40;;;3.30;99.90;;;;;;5032465;28;20468;-61
2021/03/02 01:30:44;;;;;;;23.90;19.80;;;3.30;99.90;;;;;;5032400;28;20452;-62
2021/03/02 01:33:10;;;;;;;21.60;18.03;;;3.30;99.90;;;;;;5032169;28;20816;-62
2021/03/02 01:35:37;;;;;;;22.37;18.73;;;3.30;99.90;;;;;;5032306;28;20426;-61
2021/03/02 01:38:05;;;;;;;21.23;18.30;;;3.20;99.90;;;;;;5032355;28;20469;-61
2021/03/02 01:40:31;;;;;;;22.60;19.93;;;3.20;99.90;;;;;;5032195;28;20497;-59
2021/03/02 01:42:57;;;;;;;22.93;19.47;;;3.20;99.90;;;;;;5032190;28;20449;-60
2021/03/02 01:45:27;;;;;;;24.50;21.03;;;3.20;99.90;;;;;;5032095;28;20951;-60
2021/03/02 01:47:53;;;;;;;22.23;19.93;;;3.20;99.90;;;;;;5032315;28;20472;-58
2021/03/02 01:50:21;;;;;;;21.27;18.87;;;3.20;99.90;;;;;;5032117;28;20448;-60
2021/03/02 01:52:49;;;;;;;22.60;19.80;;;3.20;99.90;;;;;;5031984;28;20449;-60
2021/03/02 01:55:17;;;;;;;22.77;19.60;;;3.10;99.90;;;;;;5031986;28;20448;-61
2021/03/02 01:57:44;;;;;;;21.03;18.07;;;3.10;99.90;;;;;;5031912;28;20485;-62
2021/03/02 02:00:16;;;;;;;21.40;18.97;;;3.10;99.90;;;;;;5032085;28;20445;-57
2021/03/02 02:02:52;;;;;;;20.03;17.80;;;3.00;99.90;;;;;;5031790;28;20558;-59
2021/03/02 02:05:21;;;;;;;22.37;19.93;;;3.00;99.90;;;;;;5031954;28;20445;-61
2021/03/02 02:07:53;;;;;;;21.93;19.60;;;2.90;99.90;;;;;;5031820;28;20469;-61
2021/03/02 02:10:26;;;;;;;25.00;20.47;;;2.80;99.90;;;;;;5031870;28;21096;-61
2021/03/02 02:13:02;;;;;;;21.17;18.73;;;2.80;99.90;;;;;;5031688;28;20441;-61
2021/03/02 02:15:33;;;;;;;23.17;20.30;;;2.80;99.90;;;;;;5031884;28;20445;-60
2021/03/02 02:18:09;;;;;;;23.30;19.97;;;2.70;99.90;;;;;;5031551;28;20465;-62
2021/03/02 02:20:43;;;;;;;26.37;20.47;;;2.70;99.90;;;;;;5031740;28;20459;-61
2021/03/02 02:23:25;;;;;;;27.73;23.50;;;2.70;99.90;;;;;;5030893;28;20448;-61
2021/03/02 02:25:57;;;;;;;23.20;19.40;;;2.70;99.90;;;;;;5031716;28;20448;-59
2021/03/02 02:28:25;;;;;;;21.53;19.33;;;2.70;99.90;;;;;;5031449;28;20988;-60
2021/03/02 02:30:55;;;;;;;21.33;19.07;;;2.70;99.90;;;;;;5031595;28;20448;-61
2021/03/02 02:33:23;;;;;;;21.87;19.43;;;2.60;99.90;;;;;;5031444;28;20452;-61
2021/03/02 02:35:51;;;;;;;24.30;20.50;;;2.60;99.90;;;;;;5031400;28;20823;-59
2021/03/02 02:38:20;;;;;;;25.17;19.60;;;2.60;99.90;;;;;;5031542;28;20972;-58
2021/03/02 02:40:48;;;;;;;21.87;18.60;;;2.50;99.90;;;;;;5031457;28;20477;-62
2021/03/02 02:43:16;;;;;;;24.57;20.00;;;2.50;99.90;;;;;;5031280;28;20452;-62
2021/03/02 02:45:45;;;;;;;25.17;18.97;;;2.50;99.90;;;;;;5031399;28;20456;-60
2021/03/02 02:48:12;;;;;;;24.30;21.07;;;2.50;99.90;;;;;;5031552;28;20469;-61
2021/03/02 02:50:39;;;;;;;22.00;19.63;;;2.40;99.90;;;;;;5031296;28;20445;-61
2021/03/02 02:53:06;;;;;;;22.30;18.43;;;2.40;99.90;;;;;;5031184;28;20948;-61
2021/03/02 02:55:35;;;;;;;20.63;18.50;;;2.40;99.90;;;;;;5031269;28;20481;-61
2021/03/02 02:58:04;;;;;;;19.73;17.50;;;2.40;99.90;;;;;;5031355;28;20526;-61
2021/03/02 03:00:33;;;;;;;22.03;19.57;;;2.40;99.90;;;;;;5031249;28;20452;-61
2021/03/02 03:03:04;;;;;;;20.93;18.63;;;2.40;99.90;;;;;;5031061;28;20873;-61
2021/03/02 03:05:32;;;;;;;21.37;18.83;;;2.30;99.90;;;;;;5031200;28;20411;-61
2021/03/02 03:08:06;;;;;;;21.80;18.90;;;2.30;99.90;;;;;;5031161;28;20485;-59
2021/03/02 03:10:34;;;;;;;20.93;18.73;;;2.30;99.90;;;;;;5031111;28;20784;-61
2021/03/02 03:13:02;;;;;;;22.00;18.47;;;2.20;99.90;;;;;;5030868;28;20456;-61
2021/03/02 03:15:30;;;;;;;20.80;18.00;;;2.20;99.90;;;;;;5031129;28;20935;-61
2021/03/02 03:17:58;;;;;;;21.50;18.90;;;2.20;99.90;;;;;;5031014;28;20457;-60
2021/03/02 03:20:26;;;;;;;22.90;19.87;;;2.20;99.90;;;;;;5031069;28;20806;-61
2021/03/02 03:22:54;;;;;;;23.53;18.57;;;2.10;99.90;;;;;;5030839;28;20458;-61
2021/03/02 03:25:20;;;;;;;21.07;18.40;;;2.10;99.90;;;;;;5031080;28;20442;-61
2021/03/02 03:27:50;;;;;;;22.70;20.37;;;2.10;99.90;;;;;;5031116;28;20854;-59
2021/03/02 03:30:18;;;;;;;22.90;19.97;;;2.10;99.90;;;;;;5031025;28;20794;-61
2021/03/02 03:32:47;;;;;;;26.57;21.20;;;2.10;99.90;;;;;;5031336;28;20441;-58
2021/03/02 03:35:14;;;;;;;25.80;23.10;;;2.10;99.90;;;;;;5034786;28;20445;-61
2021/03/02 03:37:41;;;;;;;21.13;18.73;;;2.20;99.90;;;;;;5034493;28;20464;-60
2021/03/02 03:40:09;;;;;;;24.30;19.30;;;2.10;99.90;;;;;;5034789;28;20571;-61
2021/03/02 03:42:35;;;;;;;19.63;17.63;;;2.10;99.90;;;;;;5034345;28;21023;-60
2021/03/02 03:45:01;;;;;;;19.90;17.97;;;2.10;99.90;;;;;;5034467;28;20507;-61
2021/03/02 03:47:28;;;;;;;21.87;18.90;;;2.10;99.90;;;;;;5034332;28;20460;-61
2021/03/02 03:49:54;;;;;;;24.97;18.43;;;2.10;99.90;;;;;;5034419;28;20472;-61
2021/03/02 03:52:20;;;;;;;19.67;17.70;;;2.10;99.90;;;;;;5034391;28;20441;-60
2021/03/02 03:54:49;;;;;;;21.23;18.93;;;2.10;99.90;;;;;;5034205;28;20483;-61
2021/03/02 03:57:16;;;;;;;22.90;17.67;;;2.10;99.90;;;;;;5034032;28;20473;-61
2021/03/02 03:59:43;;;;;;;20.63;18.30;;;2.20;99.90;;;;;;5034290;28;20445;-61
2021/03/02 04:02:10;;;;;;;21.97;19.37;;;2.10;99.90;;;;;;5034174;28;20531;-61
2021/03/02 04:04:38;;;;;;;21.17;17.53;;;2.10;99.90;;;;;;5033748;28;20452;-60
2021/03/02 04:07:05;;;;;;;21.07;18.67;;;2.10;99.90;;;;;;5033974;28;20875;-61
2021/03/02 04:09:33;;;;;;;18.87;16.70;;;2.20;99.90;;;;;;5034096;28;20448;-61
2021/03/02 04:12:00;;;;;;;18.03;16.10;;;2.20;99.90;;;;;;5033988;28;20441;-61
2021/03/02 04:14:30;;;;;;;19.07;17.27;;;2.20;99.90;;;;;;5033737;28;20785;-60
2021/03/02 04:16:57;;;;;;;18.40;16.23;;;2.20;99.90;;;;;;5033894;28;20455;-61
2021/03/02 04:19:23;;;;;;;17.63;15.87;;;2.30;99.90;;;;;;5033790;28;21010;-62
2021/03/02 04:21:50;;;;;;;19.23;17.30;;;2.30;99.90;;;;;;5033801;28;20485;-61
2021/03/02 04:24:16;;;;;;;20.67;17.50;;;2.30;99.90;;;;;;5033469;28;20449;-61
2021/03/02 04:26:42;;;;;;;20.17;18.00;;;2.30;99.90;;;;;;5033452;28;20432;-60
2021/03/02 04:29:09;;;;;;;20.50;17.40;;;2.30;99.90;;;;;;5033687;28;20449;-61
2021/03/02 04:31:35;;;;;;;19.87;17.80;;;2.30;99.90;;;;;;5033461;28;20473;-61
2021/03/02 04:34:02;;;;;;;17.03;15.40;;;2.20;99.90;;;;;;5033359;28;20452;-61
2021/03/02 04:36:28;;;;;;;17.60;15.90;;;2.20;99.90;;;;;;5033528;28;20419;-61
2021/03/02 04:38:54;;;;;;;17.43;15.70;;;2.20;99.90;;;;;;5033508;28;20445;-61
2021/03/02 04:41:20;;;;;;;17.73;16.03;;;2.20;99.90;;;;;;5033421;28;20455;-61
2021/03/02 04:43:47;;;;;;;20.03;15.80;;;2.10;99.90;;;;;;5033314;28;20423;-59
2021/03/02 04:46:14;;;;;;;19.37;17.27;;;2.10;99.90;;;;;;5032777;28;20416;-60
2021/03/02 04:48:43;;;;;;;19.00;15.60;;;2.10;99.90;;;;;;5033194;28;20440;-59
2021/03/02 04:51:09;;;;;;;26.47;17.30;;;2.10;99.90;;;;;;5033386;28;20957;-59
2021/03/02 04:53:35;;;;;;;18.77;16.80;;;2.10;99.90;;;;;;5033535;28;20423;-59
2021/03/02 04:56:02;;;;;;;20.33;17.00;;;2.10;99.90;;;;;;5034068;28;20428;-60
2021/03/02 04:58:28;;;;;;;20.20;16.70;;;2.00;99.90;;;;;;5033236;28;20459;-61
2021/03/02 05:00:54;;;;;;;22.00;17.93;;;2.00;99.90;;;;;;5033028;28;20808;-61
2021/03/02 05:03:21;;;;;;;20.07;17.40;;;2.00;99.90;;;;;;5032871;28;20453;-61
2021/03/02 05:05:47;;;;;;;20.47;18.00;;;2.00;99.90;;;;;;5033741;28;20445;-60
2021/03/02 05:08:13;;;;;;;20.00;16.87;;;2.00;99.90;;;;;;5032618;28;20480;-59
2021/03/02 05:10:40;;;;;;;23.60;16.60;;;2.00;99.90;;;;;;5032815;28;20445;-59
2021/03/02 05:13:06;;;;;;;19.40;17.40;;;2.00;99.90;;;;;;5033239;28;20460;-60
2021/03/02 05:15:32;;;;;;;19.10;16.33;;;2.00;99.90;;;;;;5034237;28;20456;-60
2021/03/02 05:17:58;;;;;;;19.63;16.13;;;2.00;99.90;;;;;;5033750;28;20462;-59
2021/03/02 05:20:25;;;;;;;20.53;16.93;;;2.10;99.90;;;;;;5032885;28;20455;-60
2021/03/02 05:22:52;;;;;;;18.77;16.70;;;2.10;99.90;;;;;;5032408;28;20477;-60
2021/03/02 05:25:18;;;;;;;20.70;18.30;;;2.10;99.90;;;;;;5032524;28;20973;-57
2021/03/02 05:27:44;;;;;;;16.90;15.10;;;2.10;99.90;;;;;;5032478;28;20472;-58
2021/03/02 05:30:11;;;;;;;20.77;16.13;;;2.10;99.90;;;;;;5032565;28;20452;-59
2021/03/02 05:32:37;;;;;;;24.03;18.67;;;2.10;99.90;;;;;;5032239;28;20759;-61
2021/03/02 05:35:04;;;;;;;20.37;16.53;;;2.10;99.90;;;;;;5032274;28;20449;-60
2021/03/02 05:37:31;;;;;;;19.10;15.30;;;2.10;99.90;;;;;;5032462;28;20461;-59
2021/03/02 05:39:57;;;;;;;22.47;20.23;;;2.10;99.90;;;;;;5032315;28;20449;-61
2021/03/02 05:42:24;;;;;;;18.10;16.20;;;2.10;99.90;;;;;;5032318;28;20477;-61
2021/03/02 05:44:50;;;;;;;20.20;17.00;;;2.10;99.90;;;;;;5031983;28;20445;-61
2021/03/02 05:47:17;;;;;;;17.60;15.50;;;2.10;99.90;;;;;;5032083;28;20519;-59
2021/03/02 05:49:44;;;;;;;17.40;15.53;;;2.10;99.90;;;;;;5032159;28;20449;-59
2021/03/02 05:52:11;;;;;;;18.17;16.27;;;2.20;99.90;;;;;;5031980;28;20440;-60
2021/03/02 05:54:38;;;;;;;21.77;15.77;;;2.20;99.90;;;;;;5031745;28;20452;-59
2021/03/02 05:57:05;;;;;;;21.30;16.67;;;2.30;99.90;;;;;;5031337;28;20535;-61
2021/03/02 05:59:32;;;;;;;16.13;14.70;;;2.30;99.90;;;;;;5032052;28;20445;-60
2021/03/02 06:01:59;;;;;;;20.87;15.80;;;2.30;99.90;;;;;;5031808;28;20503;-60
2021/03/02 06:04:25;;;;;;;17.20;15.40;;;2.30;99.90;;;;;;5031800;28;20449;-60
2021/03/02 06:06:59;;;;;;;16.60;15.00;;;2.30;99.90;;;;;;5031845;28;20836;-61
2021/03/02 06:09:25;;;;;;;14.90;13.50;;;2.30;99.90;;;;;;5031720;28;20445;-62
2021/03/02 06:12:02;;;;;;;20.27;18.27;;;2.40;99.90;;;;;;5031566;28;20448;-62
2021/03/02 06:14:30;;;;;;;17.07;15.40;;;2.40;99.90;;;;;;5031423;28;20441;-59
2021/03/02 06:16:57;;;;;;;15.70;14.10;;;2.50;99.90;;;;;;5031291;28;20580;-61
2021/03/02 06:19:38;;;;;;;16.13;14.53;;;2.50;99.90;;;;;;5031347;28;20480;-62
2021/03/02 06:22:05;;;;;;;16.90;14.77;;;2.60;99.90;;;;;;5031439;28;20483;-63
2021/03/02 06:24:35;;;;;;;18.63;16.60;;;2.70;99.90;;;;;;5031285;28;20457;-60
2021/03/02 06:27:11;;;;;;;15.60;13.17;;;2.80;99.90;;;;;;5031227;28;20468;-62
2021/03/02 06:29:38;;;;;;;14.80;13.23;;;3.00;99.90;;;;;;5031203;28;20931;-61
2021/03/02 06:32:05;;;;;;;14.80;12.70;;;3.10;99.90;;;;;;5031379;28;20441;-62
2021/03/02 06:34:31;;;;;;;14.47;13.03;;;3.10;99.90;;;;;;5031181;28;20474;-60
2021/03/02 06:37:03;;;;;;;15.30;13.90;;;3.10;99.90;;;;;;5031205;28;20439;-60
2021/03/02 06:39:31;;;;;;;14.77;13.37;;;3.10;99.90;;;;;;5031252;28;20422;-57
2021/03/02 06:42:13;;;;;;;14.33;12.50;;;3.20;99.90;;;;;;5031034;28;20489;-59
2021/03/02 06:44:41;;;;;;;14.07;12.67;;;3.20;99.90;;;;;;5031066;28;20483;-61
2021/03/02 06:47:07;;;;;;;13.77;12.50;;;3.30;99.90;;;;;;5031094;28;20832;-59
2021/03/02 06:49:42;;;;;;;16.13;13.97;;;3.30;99.90;;;;;;5031167;28;20812;-60
2021/03/02 06:52:13;;;;;;;19.43;17.53;;;3.30;99.90;;;;;;5031363;28;20415;-60
2021/03/02 06:54:39;;;;;;;16.90;15.30;;;3.40;99.90;;;;;;5030974;28;20448;-61
2021/03/02 06:57:06;;;;;;;16.00;14.50;;;3.50;99.90;;;;;;5030844;28;20840;-58
2021/03/02 06:59:33;;;;;;;12.50;11.20;;;3.60;99.90;;;;;;5031035;28;20441;-59
2021/03/02 07:02:00;;;;;;;15.20;13.70;;;3.70;99.90;;;;;;5030896;28;20492;-62
2021/03/02 07:04:29;;;;;;;15.30;13.80;;;3.80;99.90;;;;;;5030768;28;20436;-60
2021/03/02 07:06:57;;;;;;;14.00;12.73;;;3.90;99.90;;;;;;5030864;28;20518;-61
2021/03/02 07:09:24;;;;;;;14.07;12.67;;;4.00;99.90;;;;;;5034347;28;20457;-62
2021/03/02 07:11:52;;;;;;;15.23;13.63;;;4.20;99.90;;;;;;5035052;28;20445;-60
2021/03/02 07:14:19;;;;;;;14.60;13.30;;;4.30;99.90;;;;;;5034414;28;20445;-61
2021/03/02 07:16:48;;;;;;;15.77;14.17;;;4.40;99.90;;;;;;5034751;28;20447;-61
2021/03/02 07:19:16;;;;;;;15.00;13.50;;;4.50;99.90;;;;;;5034818;28;20492;-60
2021/03/02 07:21:44;;;;;;;14.83;13.50;;;4.60;99.90;;;;;;5034643;28;20484;-63
2021/03/02 07:24:13;;;;;;;13.53;12.13;;;4.60;99.90;;;;;;5034449;28;20457;-62
2021/03/02 07:26:43;;;;;;;13.33;11.80;;;4.70;99.90;;;;;;5034536;28;20449;-61
2021/03/02 07:29:10;;;;;;;16.50;14.57;;;4.80;99.90;;;;;;5034744;28;20983;-60
2021/03/02 07:31:38;;;;;;;12.67;11.67;;;5.00;99.90;;;;;;5034427;28;20437;-63
2021/03/02 07:34:07;;;;;;;16.17;12.93;;;5.10;99.90;;;;;;5034380;28;20470;-63
2021/03/02 07:36:35;;;;;;;13.80;12.80;;;5.20;99.90;;;;;;5034386;28;20441;-61
2021/03/02 07:39:12;;;;;;;15.53;14.07;;;5.30;99.90;;;;;;5034455;28;20420;-61
2021/03/02 07:41:39;;;;;;;14.93;13.63;;;5.40;99.90;;;;;;5034083;28;20906;-61
2021/03/02 07:44:06;;;;;;;16.17;14.77;;;5.60;99.90;;;;;;5033992;28;20808;-60
2021/03/02 07:46:44;;;;;;;15.43;14.27;;;5.70;99.90;;;;;;5034321;28;20452;-61
2021/03/02 07:49:36;;;;;;;15.17;14.07;;;5.80;99.90;;;;;;5034279;28;20490;-61
2021/03/02 07:52:21;;;;;;;14.93;13.47;;;5.90;99.90;;;;;;5034154;28;20448;-60
2021/03/02 07:55:08;;;;;;;17.07;15.40;;;6.00;99.90;;;;;;5033987;28;20952;-62
2021/03/02 07:57:35;;;;;;;15.30;14.20;;;6.10;99.90;;;;;;5033901;28;20829;-61
2021/03/02 08:00:24;;;;;;;15.80;14.60;;;6.10;99.90;;;;;;5033960;28;20445;-59
2021/03/02 08:03:26;;;;;;;16.63;15.23;;;6.30;99.90;;;;;;5033869;28;20480;-60
2021/03/02 08:05:54;;;;;;;16.57;15.40;;;6.40;99.90;;;;;;5033919;28;20967;-61
2021/03/02 08:08:37;;;;;;;15.90;14.90;;;6.50;99.90;;;;;;5033688;28;20461;-62
2021/03/02 08:11:31;;;;;;;17.37;15.97;;;6.60;99.90;;;;;;5033901;28;20462;-60
2021/03/02 08:13:59;;;;;;;16.33;15.10;;;6.70;99.90;;;;;;5033461;28;20519;-62
2021/03/02 08:16:51;;;;;;;16.20;15.10;;;6.80;99.90;;;;;;5033536;28;20441;-61
2021/03/02 08:19:38;;;;;;;16.83;15.47;;;6.90;99.90;;;;;;5032854;28;20994;-61
2021/03/02 08:22:38;;;;;;;17.13;15.90;;;7.00;99.90;;;;;;5033541;28;20480;-60
2021/03/02 08:25:06;;;;;;;17.63;16.37;;;7.10;99.90;;;;;;5033350;28;21144;-61
2021/03/02 08:27:37;;;;;;;17.20;15.87;;;7.20;99.90;;;;;;5033276;28;21049;-61
2021/03/02 08:30:08;;;;;;;16.40;15.17;;;7.40;99.90;;;;;;5033470;28;20492;-61
2021/03/02 08:32:35;;;;;;;17.87;16.57;;;7.50;99.90;;;;;;5033342;28;20448;-62
2021/03/02 08:35:05;;;;;;;16.33;14.90;;;7.60;99.90;;;;;;5033252;28;20441;-61
2021/03/02 08:37:38;;;;;;;18.47;17.07;;;7.70;99.90;;;;;;5033412;28;20457;-61
2021/03/02 08:40:07;;;;;;;18.33;16.93;;;7.90;99.90;;;;;;5033276;28;20452;-61
2021/03/02 08:42:33;;;;;;;18.10;16.70;;;8.00;99.90;;;;;;5033015;28;20999;-63
2021/03/02 08:45:08;;;;;;;16.37;15.17;;;8.20;99.90;;;;;;5032951;28;20815;-63
2021/03/02 08:47:34;;;;;;;19.73;18.13;;;8.30;99.90;;;;;;5032938;28;20468;-62
2021/03/02 08:50:01;;;;;;;18.20;16.90;;;8.50;99.90;;;;;;5033095;28;20448;-63
2021/03/02 08:52:37;;;;;;;17.80;16.40;;;8.60;99.90;;;;;;5032941;28;20837;-60
2021/03/02 08:55:06;;;;;;;17.57;16.37;;;8.80;99.90;;;;;;5032804;28;20449;-63
2021/03/02 08:57:43;;;;;;;19.17;17.23;;;8.90;99.90;;;;;;5032817;28;20984;-62
2021/03/02 09:00:15;;;;;;;17.60;16.40;;;9.10;99.90;;;;;;5032908;28;20448;-62
2021/03/02 09:02:43;;;;;;;18.40;17.10;;;9.20;99.90;;;;;;5032568;28;20539;-63
2021/03/02 09:05:15;;;;;;;18.97;17.57;;;9.30;99.90;;;;;;5032690;28;20449;-60
2021/03/02 09:07:41;;;;;;;17.77;16.47;;;9.50;99.90;;;;;;5032631;28;20523;-63
2021/03/02 09:10:15;;;;;;;19.27;18.07;;;9.60;99.90;;;;;;5032619;28;20537;-62
2021/03/02 09:12:48;;;;;;;18.83;17.40;;;9.70;99.90;;;;;;5032288;28;20448;-62
2021/03/02 09:15:15;;;;;;;19.90;18.33;;;9.90;99.90;;;;;;5032509;28;20473;-61
2021/03/02 09:17:41;;;;;;;20.30;18.90;;;10.00;99.90;;;;;;5032543;28;20472;-61
2021/03/02 09:20:08;;;;;;;18.90;17.70;;;10.10;99.90;;;;;;5032411;28;20448;-62
2021/03/02 09:22:35;;;;;;;19.10;17.87;;;10.20;99.90;;;;;;5032320;28;20477;-61
2021/03/02 09:25:01;;;;;;;20.43;19.03;;;10.30;99.90;;;;;;5032268;28;20449;-63
2021/03/02 09:27:32;;;;;;;19.43;18.10;;;10.40;99.90;;;;;;5032202;28;20753;-62
2021/03/02 09:29:58;;;;;;;18.97;17.87;;;10.50;99.30;;;;;;5032202;28;20797;-60
2021/03/02 09:32:26;;;;;;;21.60;19.57;;;10.70;98.70;;;;;;5032062;28;20445;-62
2021/03/02 09:34:54;;;;;;;20.43;17.97;;;10.70;98.50;;;;;;5032023;28;20445;-63
2021/03/02 09:37:21;;;;;;;20.50;18.90;;;10.80;98.40;;;;;;5032071;28;20535;-61
2021/03/02 09:39:56;;;;;;;20.87;19.33;;;11.00;97.70;;;;;;5032045;28;20449;-63
2021/03/02 09:42:24;;;;;;;19.53;18.23;;;11.10;96.80;;;;;;5031994;28;20475;-62
2021/03/02 09:44:53;;;;;;;19.37;18.07;;;11.20;96.10;;;;;;5031909;28;20449;-61
2021/03/02 09:47:25;;;;;;;20.40;19.00;;;11.40;95.80;;;;;;5031759;28;20484;-63
2021/03/02 09:49:57;;;;;;;20.03;18.63;;;11.50;94.80;;;;;;5032008;28;20453;-63
2021/03/02 09:52:42;;;;;;;19.53;18.43;;;11.60;93.30;;;;;;5031846;28;20445;-61
2021/03/02 09:55:23;;;;;;;21.00;19.67;;;11.80;92.10;;;;;;5031729;28;20849;-62
2021/03/02 09:58:08;;;;;;;20.60;19.33;;;11.90;91.10;;;;;;5031367;28;20484;-60
2021/03/02 10:00:39;;;;;;;21.47;19.97;;;12.00;90.30;;;;;;5031845;28;20819;-61
2021/03/02 10:03:09;;;;;;;21.67;20.40;;;12.20;89.50;;;;;;5031547;28;20480;-60
2021/03/02 10:05:41;;;;;;;22.80;21.10;;;12.40;86.70;;;;;;5031566;28;20586;-60
2021/03/02 10:08:34;;;;;;;22.07;20.67;;;12.50;84.90;;;;;;5031668;28;20831;-61
2021/03/02 10:11:03;;;;;;;22.00;20.50;;;12.60;82.70;;;;;;5031472;28;20445;-61
2021/03/02 10:13:32;;;;;;;22.47;21.07;;;12.80;81.90;;;;;;5031265;28;20467;-60
2021/03/02 10:16:15;;;;;;;23.40;21.57;;;12.90;80.20;;;;;;5031445;28;20448;-62
2021/03/02 10:18:46;;;;;;;22.83;21.43;;;13.10;79.00;;;;;;5031505;28;20471;-61
2021/03/02 10:21:13;;;;;;;23.80;21.83;;;13.20;76.90;;;;;;5031418;28;20514;-62
2021/03/02 10:23:42;;;;;;;22.50;20.90;;;13.30;76.70;;;;;;5031165;28;20445;-62
2021/03/02 10:26:09;;;;;;;24.20;22.40;;;13.50;76.80;;;;;;5031412;28;21002;-60
2021/03/02 10:28:36;;;;;;;22.23;20.93;;;13.60;74.10;;;;;;5031369;28;21043;-62
2021/03/02 10:31:02;;;;;;;22.60;21.13;;;13.80;71.80;;;;;;5031383;28;20969;-61
2021/03/02 10:33:29;;;;;;;22.63;21.20;;;13.80;71.10;;;;;;5031129;28;20441;-63
2021/03/02 10:35:56;;;;;;;22.00;20.57;;;14.00;72.20;;;;;;5031307;28;20445;-63
2021/03/02 10:38:22;;;;;;;23.00;21.30;;;14.20;70.00;;;;;;5031266;28;20468;-60
2021/03/02 10:41:40;;;;;;;23.40;21.80;;;14.30;68.20;;;;;;5031236;28;20448;-62
2021/03/02 10:44:07;;;;;;;23.87;22.03;;;14.60;66.30;;;;;;5028411;28;20441;-62
2021/03/02 10:46:51;;;;;;;23.77;21.93;;;14.70;64.00;;;;;;5037883;28;20440;-60
2021/03/02 10:49:18;;;;;;;22.73;21.27;;;14.90;63.50;;;;;;5037877;28;20971;-62
2021/03/02 10:51:44;;;;;;;23.63;22.07;;;15.10;61.50;;;;;;5037802;28;20451;-58
2021/03/02 10:54:11;;;;;;;24.90;23.30;;;15.20;60.00;;;;;;5037726;28;20441;-58
2021/03/02 10:56:38;;;;;;;23.90;22.40;;;15.50;58.90;;;;;;5037795;28;20441;-60
2021/03/02 10:59:04;;;;;;;23.60;21.93;;;15.80;58.80;;;;;;5037680;28;20441;-61
2021/03/02 11:01:31;;;;;;;24.67;22.87;;;16.10;58.20;;;;;;5037406;28;20448;-61
2021/03/02 11:03:58;;;;;;;26.07;24.17;;;16.30;56.70;;;;;;5037568;28;20455;-62
2021/03/02 11:06:26;;;;;;;24.17;22.67;;;16.50;55.90;;;;;;5037797;28;21033;-60
2021/03/02 11:08:52;;;;;;;25.00;23.50;;;16.90;54.50;;;;;;5037317;28;20444;-59
2021/03/02 11:11:20;;;;;;;25.50;23.70;;;17.20;53.40;;;;;;5037544;28;20451;-62
2021/03/02 11:13:47;;;;;;;24.43;23.00;;;17.60;52.60;;;;;;5037243;28;20449;-60
2021/03/02 11:16:17;;;;;;;25.37;23.77;;;17.50;51.90;;;;;;5037709;28;20452;-62
2021/03/02 11:18:44;;;;;;;25.60;24.03;;;18.30;50.40;;;;;;5037588;28;20464;-59
2021/03/02 11:21:12;;;;;;;30.43;28.20;;;18.80;49.10;;;;;;5037593;28;20445;-62
2021/03/02 11:23:39;;;;;;;24.60;23.03;;;19.20;47.40;;;;;;5035982;28;20448;-62
2021/03/02 11:26:05;;;;;;;26.03;24.33;;;19.60;46.20;;;;;;5036751;28;20456;-60
2021/03/02 11:28:32;;;;;;;26.07;24.37;;;19.70;45.00;;;;;;5036405;28;20471;-62
2021/03/02 11:30:58;;;;;;;26.27;24.57;;;20.30;44.70;;;;;;5036375;28;20452;-60
2021/03/02 11:33:24;;;;;;;27.63;26.00;;;20.70;43.60;;;;;;5036264;28;20445;-60
2021/03/02 11:35:50;;;;;;;26.83;25.13;;;21.30;42.90;;;;;;5036460;28;20452;-62
2021/03/02 11:38:17;;;;;;;26.53;25.03;;;22.30;41.40;;;;;;5037160;28;20465;-62
2021/03/02 11:40:44;;;;;;;27.50;25.80;;;22.80;39.80;;;;;;5037289;28;21006;-63
2021/03/02 11:43:10;;;;;;;27.07;25.47;;;24.00;38.40;;;;;;5037207;28;21081;-63
2021/03/02 11:45:37;;;;;;;25.50;23.90;;;25.20;36.70;;;;;;5037161;28;20441;-62
2021/03/02 11:48:04;;;;;;;26.13;24.50;;;26.20;35.00;;;;;;5037158;28;20518;-60
2021/03/02 11:50:31;;;;;;;26.53;24.90;;;27.00;33.30;;;;;;5037196;28;20461;-61
2021/03/02 11:52:58;;;;;;;26.93;25.43;;;27.60;32.10;;;;;;5036878;28;20441;-60
2021/03/02 11:55:24;;;;;;;26.77;25.17;;;28.50;30.90;;;;;;5034445;28;20460;-60
2021/03/02 11:57:52;;;;;;;26.27;24.77;;;27.80;31.00;;;;;;5034455;28;20531;-62
2021/03/02 12:00:20;;;;;;;28.87;27.10;;;29.60;29.60;;;;;;5034015;28;20850;-63
2021/03/02 12:02:48;;;;;;;27.63;26.10;;;30.40;28.40;;;;;;5033688;28;20531;-60
2021/03/02 12:05:16;;;;;;;27.73;26.13;;;29.80;27.50;;;;;;5033795;28;20453;-63
2021/03/02 12:07:42;;;;;;;28.80;27.10;;;29.40;27.70;;;;;;5033864;28;20472;-63
2021/03/02 12:10:11;;;;;;;29.53;27.60;;;28.40;28.00;;;;;;5033848;28;20452;-63
2021/03/02 12:12:38;;;;;;;27.50;25.80;;;27.70;28.50;;;;;;5033583;28;20452;-63
2021/03/02 12:15:07;;;;;;;26.40;24.90;;;27.50;29.30;;;;;;5033664;28;20796;-62
2021/03/02 12:17:36;;;;;;;28.43;26.37;;;26.80;28.90;;;;;;5033617;28;20469;-63
2021/03/02 12:20:04;;;;;;;27.10;25.50;;;26.30;29.30;;;;;;5033591;28;20445;-63
2021/03/02 12:22:30;;;;;;;27.33;25.77;;;27.50;29.90;;;;;;5033498;28;20508;-63
2021/03/02 12:24:56;;;;;;;27.20;25.47;;;28.10;28.80;;;;;;5033436;28;20437;-63
2021/03/02 12:27:22;;;;;;;27.90;26.03;;;28.80;28.50;;;;;;5033367;28;20976;-64
2021/03/02 12:29:49;;;;;;;26.57;25.00;;;29.80;27.80;;;;;;5033475;28;20445;-63
2021/03/02 12:32:16;;;;;;;28.43;26.57;;;30.00;27.20;;;;;;5033404;28;20445;-63
2021/03/02 12:34:43;;;;;;;27.53;25.83;;;30.20;27.10;;;;;;5033376;28;20448;-63
2021/03/02 12:37:09;;;;;;;30.50;28.60;;;29.80;27.20;;;;;;5033322;28;20931;-64
2021/03/02 12:39:36;;;;;;;27.90;26.30;;;30.00;27.00;;;;;;5033238;28;20445;-65
2021/03/02 12:42:03;;;;;;;28.43;26.77;;;31.00;26.90;;;;;;5033016;28;20492;-62
2021/03/02 12:44:29;;;;;;;28.80;27.03;;;31.80;26.00;;;;;;5033053;28;20448;-62